sensor_id;sensor_type;location;lat;lon;timestamp;P1;durP1;ratioP1;P2;durP2;ratioP2
1545;SDS011;766;51.502;9.752;2023-05-10T00:01:52;3.45;;;2.40;;
1545;SDS011;766;51.502;9.752;2023-05-10T00:04:22;3.28;;;2.78;;
1545;SDS011;766;51.502;9.752;2023-05-10T00:06:53;7.75;;;3.40;;
1545;SDS011;766;51.502;9.752;2023-05-10T00:09:22;9.00;;;3.33;;
1545;SDS011;766;51.502;9.752;2023-05-10T00:11:51;10.40;;;3.90;;
1545;SDS011;766;51.502;9.752;2023-05-10T00:14:19;4.68;;;3.40;;
1545;SDS011;766;51.502;9.752;2023-05-10T00:16:47;4.90;;;3.53;;
1545;SDS011;766;51.502;9.752;2023-05-10T00:19:16;4.80;;;3.88;;
1545;SDS011;766;51.502;9.752;2023-05-10T00:21:46;5.53;;;4.00;;
1545;SDS011;766;51.502;9.752;2023-05-10T00:24:15;6.95;;;4.47;;
1545;SDS011;766;51.502;9.752;2023-05-10T00:26:43;5.03;;;4.55;;
1545;SDS011;766;51.502;9.752;2023-05-10T00:29:12;8.70;;;5.10;;
1545;SDS011;766;51.502;9.752;2023-05-10T00:31:40;4.60;;;4.20;;
1545;SDS011;766;51.502;9.752;2023-05-10T00:34:09;6.93;;;4.90;;
1545;SDS011;766;51.502;9.752;2023-05-10T00:36:37;4.95;;;4.45;;
1545;SDS011;766;51.502;9.752;2023-05-10T00:39:07;5.18;;;4.63;;
1545;SDS011;766;51.502;9.752;2023-05-10T00:41:36;5.00;;;4.47;;
1545;SDS011;766;51.502;9.752;2023-05-10T00:44:04;5.18;;;4.68;;
1545;SDS011;766;51.502;9.752;2023-05-10T00:46:33;9.40;;;5.30;;
1545;SDS011;766;51.502;9.752;2023-05-10T00:49:02;7.55;;;5.05;;
1545;SDS011;766;51.502;9.752;2023-05-10T00:51:31;6.40;;;4.75;;
1545;SDS011;766;51.502;9.752;2023-05-10T00:54:00;5.75;;;4.75;;
1545;SDS011;766;51.502;9.752;2023-05-10T00:56:30;8.50;;;5.28;;
1545;SDS011;766;51.502;9.752;2023-05-10T00:59:00;6.13;;;5.10;;
1545;SDS011;766;51.502;9.752;2023-05-10T01:01:28;6.55;;;5.60;;
1545;SDS011;766;51.502;9.752;2023-05-10T01:03:58;6.93;;;5.20;;
1545;SDS011;766;51.502;9.752;2023-05-10T01:06:27;6.03;;;5.00;;
1545;SDS011;766;51.502;9.752;2023-05-10T01:08:55;6.40;;;5.30;;
1545;SDS011;766;51.502;9.752;2023-05-10T01:11:24;5.90;;;5.30;;
1545;SDS011;766;51.502;9.752;2023-05-10T01:13:55;9.55;;;5.30;;
1545;SDS011;766;51.502;9.752;2023-05-10T01:16:25;6.30;;;5.18;;
1545;SDS011;766;51.502;9.752;2023-05-10T01:18:55;5.82;;;4.50;;
1545;SDS011;766;51.502;9.752;2023-05-10T01:21:23;5.55;;;4.70;;
1545;SDS011;766;51.502;9.752;2023-05-10T01:24:09;5.25;;;4.68;;
1545;SDS011;766;51.502;9.752;2023-05-10T01:27:20;5.82;;;5.10;;
1545;SDS011;766;51.502;9.752;2023-05-10T01:30:11;6.80;;;4.57;;
1545;SDS011;766;51.502;9.752;2023-05-10T01:32:58;5.57;;;4.05;;
1545;SDS011;766;51.502;9.752;2023-05-10T01:35:36;6.50;;;4.25;;
1545;SDS011;766;51.502;9.752;2023-05-10T01:38:11;5.40;;;4.55;;
1545;SDS011;766;51.502;9.752;2023-05-10T01:40:48;4.10;;;3.70;;
1545;SDS011;766;51.502;9.752;2023-05-10T01:43:25;3.95;;;3.47;;
1545;SDS011;766;51.502;9.752;2023-05-10T01:45:59;3.85;;;3.15;;
1545;SDS011;766;51.502;9.752;2023-05-10T01:48:38;4.13;;;2.88;;
1545;SDS011;766;51.502;9.752;2023-05-10T01:51:14;7.90;;;3.63;;
1545;SDS011;766;51.502;9.752;2023-05-10T01:53:46;3.13;;;2.70;;
1545;SDS011;766;51.502;9.752;2023-05-10T01:56:16;4.22;;;2.80;;
1545;SDS011;766;51.502;9.752;2023-05-10T01:58:47;3.95;;;3.03;;
1545;SDS011;766;51.502;9.752;2023-05-10T02:01:17;3.60;;;2.50;;
1545;SDS011;766;51.502;9.752;2023-05-10T02:03:50;4.32;;;3.30;;
1545;SDS011;766;51.502;9.752;2023-05-10T02:06:21;7.00;;;2.95;;
1545;SDS011;766;51.502;9.752;2023-05-10T02:08:51;3.72;;;2.75;;
1545;SDS011;766;51.502;9.752;2023-05-10T02:11:21;4.88;;;3.17;;
1545;SDS011;766;51.502;9.752;2023-05-10T02:13:50;3.15;;;2.80;;
1545;SDS011;766;51.502;9.752;2023-05-10T02:16:20;3.83;;;3.10;;
1545;SDS011;766;51.502;9.752;2023-05-10T02:18:53;3.90;;;3.08;;
1545;SDS011;766;51.502;9.752;2023-05-10T02:21:24;5.60;;;3.03;;
1545;SDS011;766;51.502;9.752;2023-05-10T02:23:55;4.65;;;3.58;;
1545;SDS011;766;51.502;9.752;2023-05-10T02:26:25;3.40;;;3.10;;
1545;SDS011;766;51.502;9.752;2023-05-10T02:28:54;3.90;;;3.50;;
1545;SDS011;766;51.502;9.752;2023-05-10T02:31:24;4.25;;;3.15;;
1545;SDS011;766;51.502;9.752;2023-05-10T02:33:55;5.38;;;3.55;;
1545;SDS011;766;51.502;9.752;2023-05-10T02:36:26;3.53;;;2.95;;
1545;SDS011;766;51.502;9.752;2023-05-10T02:38:55;3.85;;;3.22;;
1545;SDS011;766;51.502;9.752;2023-05-10T02:41:24;3.83;;;3.15;;
1545;SDS011;766;51.502;9.752;2023-05-10T02:43:55;4.85;;;3.20;;
1545;SDS011;766;51.502;9.752;2023-05-10T02:46:26;3.65;;;3.20;;
1545;SDS011;766;51.502;9.752;2023-05-10T02:48:56;3.55;;;3.25;;
1545;SDS011;766;51.502;9.752;2023-05-10T02:51:25;2.97;;;2.70;;
1545;SDS011;766;51.502;9.752;2023-05-10T02:54:00;2.90;;;2.67;;
1545;SDS011;766;51.502;9.752;2023-05-10T02:56:36;4.13;;;3.28;;
1545;SDS011;766;51.502;9.752;2023-05-10T02:59:07;2.83;;;2.63;;
1545;SDS011;766;51.502;9.752;2023-05-10T03:01:35;3.03;;;2.72;;
1545;SDS011;766;51.502;9.752;2023-05-10T03:04:05;5.55;;;2.75;;
1545;SDS011;766;51.502;9.752;2023-05-10T03:06:34;4.53;;;3.28;;
1545;SDS011;766;51.502;9.752;2023-05-10T03:09:02;3.47;;;3.17;;
1545;SDS011;766;51.502;9.752;2023-05-10T03:11:35;5.25;;;3.33;;
1545;SDS011;766;51.502;9.752;2023-05-10T03:14:21;5.05;;;3.25;;
1545;SDS011;766;51.502;9.752;2023-05-10T03:16:56;3.40;;;3.10;;
1545;SDS011;766;51.502;9.752;2023-05-10T03:19:30;3.63;;;2.88;;
1545;SDS011;766;51.502;9.752;2023-05-10T03:22:04;3.95;;;2.90;;
1545;SDS011;766;51.502;9.752;2023-05-10T03:24:38;5.45;;;3.17;;
1545;SDS011;766;51.502;9.752;2023-05-10T03:27:08;3.22;;;2.90;;
1545;SDS011;766;51.502;9.752;2023-05-10T03:29:38;3.17;;;2.88;;
1545;SDS011;766;51.502;9.752;2023-05-10T03:32:07;3.45;;;2.97;;
1545;SDS011;766;51.502;9.752;2023-05-10T03:34:40;3.15;;;2.85;;
1545;SDS011;766;51.502;9.752;2023-05-10T03:37:09;3.78;;;3.30;;
1545;SDS011;766;51.502;9.752;2023-05-10T03:39:38;5.30;;;3.65;;
1545;SDS011;766;51.502;9.752;2023-05-10T03:42:06;3.80;;;3.40;;
1545;SDS011;766;51.502;9.752;2023-05-10T03:44:35;6.03;;;4.03;;
1545;SDS011;766;51.502;9.752;2023-05-10T03:47:03;4.05;;;3.50;;
1545;SDS011;766;51.502;9.752;2023-05-10T03:49:32;4.72;;;3.60;;
1545;SDS011;766;51.502;9.752;2023-05-10T03:52:02;3.85;;;3.40;;
1545;SDS011;766;51.502;9.752;2023-05-10T03:54:32;5.72;;;3.90;;
1545;SDS011;766;51.502;9.752;2023-05-10T03:57:00;5.05;;;3.67;;
1545;SDS011;766;51.502;9.752;2023-05-10T03:59:29;4.28;;;3.60;;
1545;SDS011;766;51.502;9.752;2023-05-10T04:02:00;3.72;;;3.35;;
1545;SDS011;766;51.502;9.752;2023-05-10T04:04:29;3.85;;;2.80;;
1545;SDS011;766;51.502;9.752;2023-05-10T04:06:57;5.82;;;3.75;;
1545;SDS011;766;51.502;9.752;2023-05-10T04:09:27;5.38;;;3.95;;
1545;SDS011;766;51.502;9.752;2023-05-10T04:11:56;5.78;;;3.85;;
1545;SDS011;766;51.502;9.752;2023-05-10T04:14:25;6.57;;;3.72;;
1545;SDS011;766;51.502;9.752;2023-05-10T04:16:54;4.57;;;4.18;;
1545;SDS011;766;51.502;9.752;2023-05-10T04:19:23;5.75;;;4.78;;
1545;SDS011;766;51.502;9.752;2023-05-10T04:21:51;8.13;;;5.40;;
1545;SDS011;766;51.502;9.752;2023-05-10T04:24:20;5.65;;;4.13;;
1545;SDS011;766;51.502;9.752;2023-05-10T04:26:50;5.70;;;4.38;;
1545;SDS011;766;51.502;9.752;2023-05-10T04:29:21;5.80;;;3.80;;
1545;SDS011;766;51.502;9.752;2023-05-10T04:35:29;4.63;;;2.50;;
1545;SDS011;766;51.502;9.752;2023-05-10T04:38:16;2.17;;;1.77;;
1545;SDS011;766;51.502;9.752;2023-05-10T04:40:48;2.40;;;1.83;;
1545;SDS011;766;51.502;9.752;2023-05-10T04:43:18;2.30;;;1.75;;
1545;SDS011;766;51.502;9.752;2023-05-10T04:45:47;1.75;;;1.50;;
1545;SDS011;766;51.502;9.752;2023-05-10T04:48:16;1.63;;;1.50;;
1545;SDS011;766;51.502;9.752;2023-05-10T04:50:49;1.80;;;1.65;;
1545;SDS011;766;51.502;9.752;2023-05-10T04:53:23;2.40;;;1.67;;
1545;SDS011;766;51.502;9.752;2023-05-10T04:56:02;5.45;;;1.65;;
1545;SDS011;766;51.502;9.752;2023-05-10T04:58:32;2.03;;;1.77;;
1545;SDS011;766;51.502;9.752;2023-05-10T05:01:04;2.42;;;1.70;;
1545;SDS011;766;51.502;9.752;2023-05-10T05:03:33;2.70;;;1.90;;
1545;SDS011;766;51.502;9.752;2023-05-10T05:06:02;2.83;;;2.00;;
1545;SDS011;766;51.502;9.752;2023-05-10T05:08:34;2.53;;;1.77;;
1545;SDS011;766;51.502;9.752;2023-05-10T05:11:06;2.00;;;1.88;;
1545;SDS011;766;51.502;9.752;2023-05-10T05:13:54;1.75;;;1.65;;
1545;SDS011;766;51.502;9.752;2023-05-10T05:16:30;2.00;;;1.80;;
1545;SDS011;766;51.502;9.752;2023-05-10T05:18:59;1.60;;;1.50;;
1545;SDS011;766;51.502;9.752;2023-05-10T05:21:28;1.80;;;1.65;;
1545;SDS011;766;51.502;9.752;2023-05-10T05:23:56;3.65;;;1.88;;
1545;SDS011;766;51.502;9.752;2023-05-10T05:26:25;4.18;;;2.10;;
1545;SDS011;766;51.502;9.752;2023-05-10T05:28:55;1.88;;;1.77;;
1545;SDS011;766;51.502;9.752;2023-05-10T05:31:24;1.70;;;1.60;;
1545;SDS011;766;51.502;9.752;2023-05-10T05:33:56;1.67;;;1.58;;
1545;SDS011;766;51.502;9.752;2023-05-10T05:36:28;6.90;;;1.83;;
1545;SDS011;766;51.502;9.752;2023-05-10T05:38:57;3.72;;;1.73;;
1545;SDS011;766;51.502;9.752;2023-05-10T05:41:25;2.17;;;1.73;;
1545;SDS011;766;51.502;9.752;2023-05-10T05:43:53;2.28;;;1.40;;
1545;SDS011;766;51.502;9.752;2023-05-10T05:46:23;1.58;;;1.48;;
1545;SDS011;766;51.502;9.752;2023-05-10T05:48:52;1.63;;;1.38;;
1545;SDS011;766;51.502;9.752;2023-05-10T05:51:20;1.50;;;1.35;;
1545;SDS011;766;51.502;9.752;2023-05-10T05:53:48;1.70;;;1.10;;
1545;SDS011;766;51.502;9.752;2023-05-10T05:56:17;1.40;;;1.30;;
1545;SDS011;766;51.502;9.752;2023-05-10T05:58:51;1.40;;;1.30;;
1545;SDS011;766;51.502;9.752;2023-05-10T06:01:26;1.70;;;1.50;;
1545;SDS011;766;51.502;9.752;2023-05-10T06:03:54;2.63;;;2.00;;
1545;SDS011;766;51.502;9.752;2023-05-10T06:06:22;2.20;;;1.50;;
1545;SDS011;766;51.502;9.752;2023-05-10T06:08:50;1.30;;;1.20;;
1545;SDS011;766;51.502;9.752;2023-05-10T06:11:19;2.50;;;1.60;;
1545;SDS011;766;51.502;9.752;2023-05-10T06:13:48;2.20;;;2.00;;
1545;SDS011;766;51.502;9.752;2023-05-10T06:16:17;2.10;;;1.75;;
1545;SDS011;766;51.502;9.752;2023-05-10T06:18:47;2.53;;;1.60;;
1545;SDS011;766;51.502;9.752;2023-05-10T06:21:16;2.13;;;1.45;;
1545;SDS011;766;51.502;9.752;2023-05-10T06:23:44;1.83;;;1.48;;
1545;SDS011;766;51.502;9.752;2023-05-10T06:26:13;3.72;;;1.25;;
1545;SDS011;766;51.502;9.752;2023-05-10T06:28:41;1.42;;;1.05;;
1545;SDS011;766;51.502;9.752;2023-05-10T06:31:10;1.30;;;1.20;;
1545;SDS011;766;51.502;9.752;2023-05-10T06:33:39;1.48;;;1.38;;
1545;SDS011;766;51.502;9.752;2023-05-10T06:36:09;1.75;;;1.10;;
1545;SDS011;766;51.502;9.752;2023-05-10T06:38:37;1.38;;;1.05;;
1545;SDS011;766;51.502;9.752;2023-05-10T06:41:06;0.60;;;0.60;;
1545;SDS011;766;51.502;9.752;2023-05-10T06:43:34;0.77;;;0.70;;
1545;SDS011;766;51.502;9.752;2023-05-10T06:46:06;1.23;;;0.95;;
1545;SDS011;766;51.502;9.752;2023-05-10T06:48:34;0.82;;;0.70;;
1545;SDS011;766;51.502;9.752;2023-05-10T06:51:03;0.63;;;0.63;;
1545;SDS011;766;51.502;9.752;2023-05-10T06:53:33;0.90;;;0.63;;
1545;SDS011;766;51.502;9.752;2023-05-10T06:56:01;2.80;;;0.73;;
1545;SDS011;766;51.502;9.752;2023-05-10T06:58:30;0.60;;;0.60;;
1545;SDS011;766;51.502;9.752;2023-05-10T07:01:02;2.05;;;0.80;;
1545;SDS011;766;51.502;9.752;2023-05-10T07:03:31;0.70;;;0.70;;
1545;SDS011;766;51.502;9.752;2023-05-10T07:06:00;0.98;;;0.80;;
1545;SDS011;766;51.502;9.752;2023-05-10T07:08:31;0.60;;;0.60;;
1545;SDS011;766;51.502;9.752;2023-05-10T07:11:04;1.08;;;0.80;;
1545;SDS011;766;51.502;9.752;2023-05-10T07:13:34;2.80;;;0.60;;
1545;SDS011;766;51.502;9.752;2023-05-10T07:16:02;0.70;;;0.70;;
1545;SDS011;766;51.502;9.752;2023-05-10T07:18:32;0.82;;;0.63;;
1545;SDS011;766;51.502;9.752;2023-05-10T07:21:01;0.50;;;0.50;;
1545;SDS011;766;51.502;9.752;2023-05-10T07:23:29;0.75;;;0.45;;
1545;SDS011;766;51.502;9.752;2023-05-10T07:25:59;1.38;;;0.73;;
1545;SDS011;766;51.502;9.752;2023-05-10T07:28:28;2.47;;;0.80;;
1545;SDS011;766;51.502;9.752;2023-05-10T07:30:57;0.60;;;0.60;;
1545;SDS011;766;51.502;9.752;2023-05-10T07:33:25;0.45;;;0.45;;
1545;SDS011;766;51.502;9.752;2023-05-10T07:35:54;0.70;;;0.63;;
1545;SDS011;766;51.502;9.752;2023-05-10T07:38:22;1.25;;;0.75;;
1545;SDS011;766;51.502;9.752;2023-05-10T07:40:50;0.63;;;0.63;;
1545;SDS011;766;51.502;9.752;2023-05-10T07:43:20;1.00;;;0.90;;
1545;SDS011;766;51.502;9.752;2023-05-10T07:45:48;1.52;;;1.08;;
1545;SDS011;766;51.502;9.752;2023-05-10T07:48:21;0.70;;;0.70;;
1545;SDS011;766;51.502;9.752;2023-05-10T07:50:49;1.23;;;0.80;;
1545;SDS011;766;51.502;9.752;2023-05-10T07:53:18;1.58;;;0.50;;
1545;SDS011;766;51.502;9.752;2023-05-10T07:55:49;2.00;;;0.80;;
1545;SDS011;766;51.502;9.752;2023-05-10T07:58:18;3.67;;;0.80;;
1545;SDS011;766;51.502;9.752;2023-05-10T08:00:48;2.75;;;0.88;;
1545;SDS011;766;51.502;9.752;2023-05-10T08:03:16;0.77;;;0.77;;
1545;SDS011;766;51.502;9.752;2023-05-10T08:05:45;2.40;;;0.73;;
1545;SDS011;766;51.502;9.752;2023-05-10T08:08:13;0.98;;;0.80;;
1545;SDS011;766;51.502;9.752;2023-05-10T08:10:42;1.27;;;0.52;;
1545;SDS011;766;51.502;9.752;2023-05-10T08:13:13;1.00;;;0.80;;
1545;SDS011;766;51.502;9.752;2023-05-10T08:15:42;0.95;;;0.80;;
1545;SDS011;766;51.502;9.752;2023-05-10T08:18:12;1.33;;;1.10;;
1545;SDS011;766;51.502;9.752;2023-05-10T08:20:40;0.70;;;0.65;;
1545;SDS011;766;51.502;9.752;2023-05-10T08:23:08;1.23;;;0.93;;
1545;SDS011;766;51.502;9.752;2023-05-10T08:25:37;1.05;;;1.00;;
1545;SDS011;766;51.502;9.752;2023-05-10T08:28:06;1.00;;;0.93;;
1545;SDS011;766;51.502;9.752;2023-05-10T08:30:37;1.90;;;0.90;;
1545;SDS011;766;51.502;9.752;2023-05-10T08:33:05;1.38;;;0.70;;
1545;SDS011;766;51.502;9.752;2023-05-10T08:35:35;1.23;;;0.75;;
1545;SDS011;766;51.502;9.752;2023-05-10T08:38:03;2.28;;;0.95;;
1545;SDS011;766;51.502;9.752;2023-05-10T08:40:31;1.00;;;0.90;;
1545;SDS011;766;51.502;9.752;2023-05-10T08:43:04;1.75;;;0.60;;
1545;SDS011;766;51.502;9.752;2023-05-10T08:45:38;0.70;;;0.70;;
1545;SDS011;766;51.502;9.752;2023-05-10T08:48:08;1.50;;;0.70;;
1545;SDS011;766;51.502;9.752;2023-05-10T08:50:39;1.88;;;0.80;;
1545;SDS011;766;51.502;9.752;2023-05-10T08:53:12;1.20;;;0.80;;
1545;SDS011;766;51.502;9.752;2023-05-10T08:55:45;2.22;;;1.00;;
1545;SDS011;766;51.502;9.752;2023-05-10T08:58:14;1.58;;;0.95;;
1545;SDS011;766;51.502;9.752;2023-05-10T09:00:43;1.50;;;0.90;;
1545;SDS011;766;51.502;9.752;2023-05-10T09:03:12;2.03;;;0.75;;
1545;SDS011;766;51.502;9.752;2023-05-10T09:05:42;1.48;;;0.77;;
1545;SDS011;766;51.502;9.752;2023-05-10T09:08:11;1.33;;;0.73;;
1545;SDS011;766;51.502;9.752;2023-05-10T09:10:42;2.65;;;0.80;;
1545;SDS011;766;51.502;9.752;2023-05-10T09:13:14;1.20;;;0.68;;
1545;SDS011;766;51.502;9.752;2023-05-10T09:15:43;1.02;;;0.65;;
1545;SDS011;766;51.502;9.752;2023-05-10T09:18:12;1.67;;;0.90;;
1545;SDS011;766;51.502;9.752;2023-05-10T09:20:44;2.13;;;0.75;;
1545;SDS011;766;51.502;9.752;2023-05-10T09:23:16;0.70;;;0.70;;
1545;SDS011;766;51.502;9.752;2023-05-10T09:25:44;1.83;;;0.80;;
1545;SDS011;766;51.502;9.752;2023-05-10T09:28:13;1.15;;;0.77;;
1545;SDS011;766;51.502;9.752;2023-05-10T09:30:41;1.33;;;0.82;;
1545;SDS011;766;51.502;9.752;2023-05-10T09:33:09;2.10;;;1.10;;
1545;SDS011;766;51.502;9.752;2023-05-10T09:35:38;1.38;;;0.95;;
1545;SDS011;766;51.502;9.752;2023-05-10T09:38:08;1.55;;;0.85;;
1545;SDS011;766;51.502;9.752;2023-05-10T09:40:36;1.73;;;0.80;;
1545;SDS011;766;51.502;9.752;2023-05-10T09:43:08;1.25;;;0.80;;
1545;SDS011;766;51.502;9.752;2023-05-10T09:45:37;0.80;;;0.80;;
1545;SDS011;766;51.502;9.752;2023-05-10T09:48:06;1.13;;;0.60;;
1545;SDS011;766;51.502;9.752;2023-05-10T09:50:34;0.70;;;0.70;;
1545;SDS011;766;51.502;9.752;2023-05-10T09:53:03;1.70;;;0.90;;
1545;SDS011;766;51.502;9.752;2023-05-10T09:55:39;1.23;;;0.77;;
1545;SDS011;766;51.502;9.752;2023-05-10T09:58:11;2.58;;;0.60;;
1545;SDS011;766;51.502;9.752;2023-05-10T10:00:41;1.17;;;0.57;;
1545;SDS011;766;51.502;9.752;2023-05-10T10:03:14;0.98;;;0.50;;
1545;SDS011;766;51.502;9.752;2023-05-10T10:05:44;1.40;;;0.80;;
1545;SDS011;766;51.502;9.752;2023-05-10T10:08:13;4.18;;;0.98;;
1545;SDS011;766;51.502;9.752;2023-05-10T10:10:44;1.05;;;0.82;;
1545;SDS011;766;51.502;9.752;2023-05-10T10:13:13;1.02;;;0.93;;
1545;SDS011;766;51.502;9.752;2023-05-10T10:15:43;3.00;;;0.98;;
1545;SDS011;766;51.502;9.752;2023-05-10T10:18:13;2.28;;;0.80;;
1545;SDS011;766;51.502;9.752;2023-05-10T10:20:42;2.40;;;1.00;;
1545;SDS011;766;51.502;9.752;2023-05-10T10:23:10;1.48;;;0.90;;
1545;SDS011;766;51.502;9.752;2023-05-10T10:25:48;1.98;;;0.90;;
1545;SDS011;766;51.502;9.752;2023-05-10T10:28:21;1.00;;;0.82;;
1545;SDS011;766;51.502;9.752;2023-05-10T10:30:54;1.15;;;0.80;;
1545;SDS011;766;51.502;9.752;2023-05-10T10:33:36;1.77;;;0.95;;
1545;SDS011;766;51.502;9.752;2023-05-10T10:36:15;1.23;;;1.00;;
1545;SDS011;766;51.502;9.752;2023-05-10T10:38:59;2.90;;;1.40;;
1545;SDS011;766;51.502;9.752;2023-05-10T10:41:33;2.08;;;1.00;;
1545;SDS011;766;51.502;9.752;2023-05-10T10:47:00;1.65;;;0.82;;
1545;SDS011;766;51.502;9.752;2023-05-10T10:49:32;2.55;;;1.00;;
1545;SDS011;766;51.502;9.752;2023-05-10T10:52:21;2.92;;;1.08;;
1545;SDS011;766;51.502;9.752;2023-05-10T10:54:57;1.17;;;0.68;;
1545;SDS011;766;51.502;9.752;2023-05-10T10:57:31;1.15;;;0.85;;
1545;SDS011;766;51.502;9.752;2023-05-10T11:00:19;2.65;;;1.02;;
1545;SDS011;766;51.502;9.752;2023-05-10T11:02:50;0.90;;;0.80;;
1545;SDS011;766;51.502;9.752;2023-05-10T11:05:23;1.45;;;0.70;;
1545;SDS011;766;51.502;9.752;2023-05-10T11:07:56;0.70;;;0.60;;
1545;SDS011;766;51.502;9.752;2023-05-10T11:10:27;1.05;;;0.95;;
1545;SDS011;766;51.502;9.752;2023-05-10T11:13:01;2.67;;;1.13;;
1545;SDS011;766;51.502;9.752;2023-05-10T11:15:30;1.15;;;1.08;;
1545;SDS011;766;51.502;9.752;2023-05-10T11:18:01;1.92;;;0.90;;
1545;SDS011;766;51.502;9.752;2023-05-10T11:20:45;1.63;;;1.48;;
1545;SDS011;766;51.502;9.752;2023-05-10T11:23:18;3.47;;;2.50;;
1545;SDS011;766;51.502;9.752;2023-05-10T11:25:47;1.95;;;1.80;;
1545;SDS011;766;51.502;9.752;2023-05-10T11:28:18;3.17;;;2.05;;
1545;SDS011;766;51.502;9.752;2023-05-10T11:30:47;3.40;;;2.22;;
1545;SDS011;766;51.502;9.752;2023-05-10T11:33:19;3.38;;;2.10;;
1545;SDS011;766;51.502;9.752;2023-05-10T11:35:48;6.15;;;2.70;;
1545;SDS011;766;51.502;9.752;2023-05-10T11:38:17;3.70;;;2.42;;
1545;SDS011;766;51.502;9.752;2023-05-10T11:40:51;4.47;;;2.92;;
1545;SDS011;766;51.502;9.752;2023-05-10T11:43:24;6.22;;;2.45;;
1545;SDS011;766;51.502;9.752;2023-05-10T11:45:58;3.97;;;2.70;;
1545;SDS011;766;51.502;9.752;2023-05-10T11:48:27;6.03;;;3.03;;
1545;SDS011;766;51.502;9.752;2023-05-10T11:50:57;3.17;;;2.78;;
1545;SDS011;766;51.502;9.752;2023-05-10T11:53:26;3.25;;;2.80;;
1545;SDS011;766;51.502;9.752;2023-05-10T11:55:54;3.72;;;3.08;;
1545;SDS011;766;51.502;9.752;2023-05-10T11:58:25;5.03;;;3.83;;
1545;SDS011;766;51.502;9.752;2023-05-10T12:00:54;4.65;;;3.38;;
1545;SDS011;766;51.502;9.752;2023-05-10T12:03:22;4.97;;;3.38;;
1545;SDS011;766;51.502;9.752;2023-05-10T12:05:51;4.63;;;3.70;;
1545;SDS011;766;51.502;9.752;2023-05-10T12:08:20;4.47;;;3.97;;
1545;SDS011;766;51.502;9.752;2023-05-10T12:10:51;3.90;;;3.33;;
1545;SDS011;766;51.502;9.752;2023-05-10T12:13:20;4.13;;;3.22;;
1545;SDS011;766;51.502;9.752;2023-05-10T12:15:50;4.70;;;3.40;;
1545;SDS011;766;51.502;9.752;2023-05-10T12:18:34;4.43;;;2.75;;
1545;SDS011;766;51.502;9.752;2023-05-10T12:21:13;3.35;;;2.85;;
1545;SDS011;766;51.502;9.752;2023-05-10T12:23:45;3.80;;;2.90;;
1545;SDS011;766;51.502;9.752;2023-05-10T12:26:14;6.15;;;3.33;;
1545;SDS011;766;51.502;9.752;2023-05-10T12:28:43;5.13;;;3.65;;
1545;SDS011;766;51.502;9.752;2023-05-10T12:31:14;5.72;;;3.30;;
1545;SDS011;766;51.502;9.752;2023-05-10T12:33:43;3.85;;;3.22;;
1545;SDS011;766;51.502;9.752;2023-05-10T12:36:14;3.58;;;3.28;;
1545;SDS011;766;51.502;9.752;2023-05-10T12:38:44;5.25;;;4.68;;
1545;SDS011;766;51.502;9.752;2023-05-10T12:41:23;5.30;;;3.95;;
1545;SDS011;766;51.502;9.752;2023-05-10T12:44:08;5.65;;;4.22;;
1545;SDS011;766;51.502;9.752;2023-05-10T12:46:39;4.80;;;4.15;;
1545;SDS011;766;51.502;9.752;2023-05-10T12:49:07;6.18;;;4.03;;
1545;SDS011;766;51.502;9.752;2023-05-10T12:51:35;4.70;;;3.50;;
1545;SDS011;766;51.502;9.752;2023-05-10T12:54:04;5.82;;;3.45;;
1545;SDS011;766;51.502;9.752;2023-05-10T12:56:33;6.22;;;3.70;;
1545;SDS011;766;51.502;9.752;2023-05-10T12:59:01;5.50;;;3.88;;
1545;SDS011;766;51.502;9.752;2023-05-10T13:01:30;3.90;;;3.47;;
1545;SDS011;766;51.502;9.752;2023-05-10T13:04:00;4.25;;;3.58;;
1545;SDS011;766;51.502;9.752;2023-05-10T13:06:28;5.28;;;3.95;;
1545;SDS011;766;51.502;9.752;2023-05-10T13:08:57;6.28;;;3.90;;
1545;SDS011;766;51.502;9.752;2023-05-10T13:11:25;3.85;;;3.47;;
1545;SDS011;766;51.502;9.752;2023-05-10T13:13:54;4.03;;;3.42;;
1545;SDS011;766;51.502;9.752;2023-05-10T13:16:22;4.10;;;3.45;;
1545;SDS011;766;51.502;9.752;2023-05-10T13:18:50;6.68;;;3.50;;
1545;SDS011;766;51.502;9.752;2023-05-10T13:21:20;5.25;;;4.10;;
1545;SDS011;766;51.502;9.752;2023-05-10T13:23:50;5.18;;;3.55;;
1545;SDS011;766;51.502;9.752;2023-05-10T13:26:18;4.32;;;3.72;;
1545;SDS011;766;51.502;9.752;2023-05-10T13:28:47;5.78;;;4.38;;
1545;SDS011;766;51.502;9.752;2023-05-10T13:31:17;7.18;;;4.22;;
1545;SDS011;766;51.502;9.752;2023-05-10T13:33:47;8.85;;;4.22;;
1545;SDS011;766;51.502;9.752;2023-05-10T13:36:15;7.60;;;3.80;;
1545;SDS011;766;51.502;9.752;2023-05-10T13:38:45;4.32;;;3.92;;
1545;SDS011;766;51.502;9.752;2023-05-10T13:41:13;4.13;;;3.72;;
1545;SDS011;766;51.502;9.752;2023-05-10T13:43:41;4.20;;;3.80;;
1545;SDS011;766;51.502;9.752;2023-05-10T13:46:10;7.22;;;4.22;;
1545;SDS011;766;51.502;9.752;2023-05-10T13:48:38;6.38;;;4.63;;
1545;SDS011;766;51.502;9.752;2023-05-10T13:51:07;7.32;;;4.05;;
1545;SDS011;766;51.502;9.752;2023-05-10T13:53:35;7.90;;;4.07;;
1545;SDS011;766;51.502;9.752;2023-05-10T13:56:08;5.63;;;3.97;;
1545;SDS011;766;51.502;9.752;2023-05-10T13:58:37;4.18;;;3.53;;
1545;SDS011;766;51.502;9.752;2023-05-10T14:01:05;5.22;;;3.25;;
1545;SDS011;766;51.502;9.752;2023-05-10T14:03:34;6.22;;;4.25;;
1545;SDS011;766;51.502;9.752;2023-05-10T14:06:02;6.63;;;4.22;;
1545;SDS011;766;51.502;9.752;2023-05-10T14:08:34;5.68;;;4.60;;
1545;SDS011;766;51.502;9.752;2023-05-10T14:11:03;5.75;;;4.20;;
1545;SDS011;766;51.502;9.752;2023-05-10T14:13:33;7.32;;;4.05;;
1545;SDS011;766;51.502;9.752;2023-05-10T14:16:03;5.40;;;3.45;;
1545;SDS011;766;51.502;9.752;2023-05-10T14:18:32;4.70;;;3.03;;
1545;SDS011;766;51.502;9.752;2023-05-10T14:21:01;5.13;;;3.72;;
1545;SDS011;766;51.502;9.752;2023-05-10T14:23:30;9.23;;;5.05;;
1545;SDS011;766;51.502;9.752;2023-05-10T14:25:59;5.35;;;4.05;;
1545;SDS011;766;51.502;9.752;2023-05-10T14:28:28;5.03;;;4.05;;
1545;SDS011;766;51.502;9.752;2023-05-10T14:30:58;7.82;;;4.78;;
1545;SDS011;766;51.502;9.752;2023-05-10T14:33:26;6.05;;;4.45;;
1545;SDS011;766;51.502;9.752;2023-05-10T14:35:54;6.70;;;4.75;;
1545;SDS011;766;51.502;9.752;2023-05-10T14:38:23;6.00;;;3.22;;
1545;SDS011;766;51.502;9.752;2023-05-10T14:40:52;4.80;;;3.55;;
1545;SDS011;766;51.502;9.752;2023-05-10T14:43:21;7.10;;;3.03;;
1545;SDS011;766;51.502;9.752;2023-05-10T14:45:50;6.93;;;2.83;;
1545;SDS011;766;51.502;9.752;2023-05-10T14:48:20;3.75;;;2.40;;
1545;SDS011;766;51.502;9.752;2023-05-10T14:50:56;4.05;;;2.35;;
1545;SDS011;766;51.502;9.752;2023-05-10T14:53:25;4.40;;;2.50;;
1545;SDS011;766;51.502;9.752;2023-05-10T14:55:55;3.80;;;2.28;;
1545;SDS011;766;51.502;9.752;2023-05-10T14:58:24;3.25;;;2.03;;
1545;SDS011;766;51.502;9.752;2023-05-10T15:00:53;5.18;;;2.40;;
1545;SDS011;766;51.502;9.752;2023-05-10T15:03:25;3.42;;;2.60;;
1545;SDS011;766;51.502;9.752;2023-05-10T15:05:54;3.22;;;2.60;;
1545;SDS011;766;51.502;9.752;2023-05-10T15:08:24;3.08;;;2.05;;
1545;SDS011;766;51.502;9.752;2023-05-10T15:10:52;3.55;;;2.28;;
1545;SDS011;766;51.502;9.752;2023-05-10T15:13:22;3.58;;;2.03;;
1545;SDS011;766;51.502;9.752;2023-05-10T15:15:50;4.72;;;2.20;;
1545;SDS011;766;51.502;9.752;2023-05-10T15:18:19;2.55;;;2.10;;
1545;SDS011;766;51.502;9.752;2023-05-10T15:20:51;4.50;;;2.28;;
1545;SDS011;766;51.502;9.752;2023-05-10T15:23:20;4.05;;;2.40;;
1545;SDS011;766;51.502;9.752;2023-05-10T15:25:48;5.00;;;2.80;;
1545;SDS011;766;51.502;9.752;2023-05-10T15:28:16;3.22;;;2.47;;
1545;SDS011;766;51.502;9.752;2023-05-10T15:30:47;4.43;;;2.70;;
1545;SDS011;766;51.502;9.752;2023-05-10T15:33:16;5.93;;;2.88;;
1545;SDS011;766;51.502;9.752;2023-05-10T15:35:45;4.50;;;2.97;;
1545;SDS011;766;51.502;9.752;2023-05-10T15:38:15;3.42;;;2.58;;
1545;SDS011;766;51.502;9.752;2023-05-10T15:40:43;4.88;;;2.78;;
1545;SDS011;766;51.502;9.752;2023-05-10T15:43:11;3.20;;;2.33;;
1545;SDS011;766;51.502;9.752;2023-05-10T15:45:40;3.13;;;2.28;;
1545;SDS011;766;51.502;9.752;2023-05-10T15:48:08;3.25;;;2.22;;
1545;SDS011;766;51.502;9.752;2023-05-10T15:50:37;3.10;;;2.30;;
1545;SDS011;766;51.502;9.752;2023-05-10T15:53:06;3.63;;;2.70;;
1545;SDS011;766;51.502;9.752;2023-05-10T15:55:36;5.78;;;2.80;;
1545;SDS011;766;51.502;9.752;2023-05-10T15:58:05;3.50;;;2.88;;